tititudorancea.com
Station Historical Data
Daily Summary for February 14, 2018 Units:  English    Metric   Both
« Previous Day
Next Day »
Daily Weekly Monthly Yearly Custom
  High: Low: Average:
Temperature: TemperatureF °F 56.3 °F 63.6 °F
Dew Point: DewpointF °F 35.7 °F 43.9 °F
Humidity: Humidity % 28 % 51 %
Wind Speed: WindSpeedMPH mph 0.0 mph 9.2 mph
Wind Gust: WindSpeedGustMPH mph - -
Wind:- - West
Pressure: PressureIn in 29.54 in -
Precipitation: 0.02 in    
Historical Graphs
 
 
Ararat weather Find more about Weather in Ararat, AU


 



 


Tabular Data for February 14, 2018
Time Temperature Dew Point Pressure Wind Wind Speed Wind Gust Humidity Rainfall Rate (Hourly)
TemperatureF °F DewpointF °F PressureIn in Calm     Humidity % HourlyPrecipIn in
00:01 61.1 °F 51.2 °F 29.66 in Calm     70 % 0.00 in
00:06 60.8 °F 51.0 °F 29.65 in Calm     70 % 0.00 in
00:11 60.6 °F 50.8 °F 29.65 in Calm     70 % 0.00 in
00:16 60.4 °F 50.6 °F 29.65 in Calm     70 % 0.00 in
00:21 60.2 °F 50.8 °F 29.65 in Calm     71 % 0.00 in
00:26 60.0 °F 50.6 °F 29.65 in Calm     71 % 0.00 in
00:31 59.9 °F 50.8 °F 29.65 in Calm     72 % 0.00 in
00:36 59.8 °F 50.8 °F 29.64 in Calm     72 % 0.00 in
00:42 59.9 °F 50.8 °F 29.64 in South 1.8 mph 2.3 mph 72 % 0.00 in
00:47 59.9 °F 50.8 °F 29.63 in South 0.8 mph 2.3 mph 72 % 0.00 in
00:52 59.7 °F 50.7 °F 29.63 in North 2.2 mph 3.5 mph 72 % 0.00 in
00:57 59.7 °F 50.7 °F 29.63 in South 0.4 mph 1.2 mph 72 % 0.00 in
01:02 59.7 °F 51.0 °F 29.63 in Calm     73 % 0.00 in
01:07 59.6 °F 50.9 °F 29.63 in South 0.4 mph 3.5 mph 73 % 0.00 in
01:12 59.6 °F 50.9 °F 29.63 in Calm     73 % 0.00 in
01:17 59.6 °F 50.9 °F 29.62 in South 2.1 mph 3.5 mph 73 % 0.00 in
01:22 59.5 °F 50.8 °F 29.62 in North 0.5 mph 1.2 mph 73 % 0.00 in
01:27 59.5 °F 50.8 °F 29.61 in South 1.7 mph 3.5 mph 73 % 0.00 in
01:32 59.6 °F 51.3 °F 29.61 in South 2.5 mph 3.5 mph 74 % 0.00 in
01:37 59.9 °F 51.2 °F 29.60 in South 0.4 mph 3.5 mph 73 % 0.00 in
01:41 60.1 °F 51.4 °F 29.60 in North 2.3 mph 3.5 mph 73 % 0.00 in
01:46 60.3 °F 51.6 °F 29.60 in North 2.1 mph 3.5 mph 73 % 0.00 in
01:51 60.7 °F 52.0 °F 29.59 in North 1.2 mph 4.6 mph 73 % 0.00 in
01:56 60.9 °F 51.8 °F 29.59 in South 0.6 mph 2.3 mph 72 % 0.00 in
02:02 61.0 °F 51.9 °F 29.59 in South 2.6 mph 3.5 mph 72 % 0.00 in
02:06 61.2 °F 52.1 °F 29.59 in North 2.3 mph 3.5 mph 72 % 0.00 in
02:12 61.3 °F 51.8 °F 29.59 in South 1.4 mph 4.6 mph 71 % 0.00 in
02:17 61.5 °F 52.0 °F 29.59 in South 3.5 mph 3.5 mph 71 % 0.00 in
02:22 61.8 °F 51.5 °F 29.59 in South 2.4 mph 4.0 mph 69 % 0.00 in
02:27 62.7 °F 51.2 °F 29.59 in WSW 4.4 mph 8.1 mph 66 % 0.00 in
02:31 63.9 °F 50.6 °F 29.59 in North 3.2 mph 5.8 mph 62 % 0.00 in
02:36 64.3 °F 50.1 °F 29.59 in NW 4.6 mph 8.1 mph 60 % 0.00 in
02:41 64.3 °F 50.1 °F 29.59 in North 4.8 mph 8.1 mph 60 % 0.00 in
02:46 64.1 °F 49.5 °F 29.59 in NNW 5.9 mph 10.4 mph 59 % 0.00 in
02:51 63.7 °F 49.1 °F 29.58 in NNW 5.3 mph 11.5 mph 59 % 0.00 in
02:56 63.3 °F 49.2 °F 29.58 in NNW 7.8 mph 10.4 mph 60 % 0.00 in
03:02 63.0 °F 48.9 °F 29.58 in NNW 5.1 mph 8.1 mph 60 % 0.00 in
03:07 62.7 °F 49.1 °F 29.57 in North 5.9 mph 9.2 mph 61 % 0.00 in
03:12 62.4 °F 48.8 °F 29.57 in North 5.5 mph 8.1 mph 61 % 0.00 in
03:17 62.2 °F 49.0 °F 29.57 in NNW 5.2 mph 7.0 mph 62 % 0.00 in
03:22 62.1 °F 48.5 °F 29.57 in NNW 6.8 mph 8.1 mph 61 % 0.00 in
03:27 62.2 °F 48.6 °F 29.56 in NNW 6.4 mph 10.4 mph 61 % 0.00 in
03:32 62.2 °F 48.6 °F 29.56 in North 4.8 mph 6.9 mph 61 % 0.00 in
03:37 62.1 °F 48.9 °F 29.56 in NNW 6.7 mph 9.2 mph 62 % 0.00 in
03:42 62.2 °F 49.0 °F 29.56 in NNW 5.8 mph 11.5 mph 62 % 0.00 in
03:47 62.5 °F 49.3 °F 29.56 in NW 6.5 mph 6.9 mph 62 % 0.00 in
03:52 62.9 °F 49.2 °F 29.57 in NW 7.3 mph 10.4 mph 61 % 0.00 in
03:57 64.9 °F 49.3 °F 29.57 in NW 16.3 mph 17.3 mph 57 % 0.00 in
04:02 68.2 °F 48.8 °F 29.56 in North 10.3 mph 17.3 mph 50 % 0.00 in
04:07 69.3 °F 48.8 °F 29.56 in NW 7.2 mph 9.0 mph 48 % 0.00 in
04:12 68.0 °F 49.2 °F 29.55 in North 5.9 mph 9.2 mph 51 % 0.00 in
04:17 66.3 °F 48.7 °F 29.55 in NNW 4.4 mph 8.1 mph 53 % 0.00 in
04:22 64.8 °F 48.7 °F 29.55 in North 4.5 mph 8.1 mph 56 % 0.00 in
04:27 64.1 °F 49.0 °F 29.55 in NW 5.7 mph 10.4 mph 58 % 0.00 in
04:32 63.8 °F 48.7 °F 29.54 in NNW 4.8 mph 8.1 mph 58 % 0.00 in
04:37 63.7 °F 48.6 °F 29.54 in North 7.5 mph 8.1 mph 58 % 0.00 in
04:42 63.5 °F 48.9 °F 29.55 in NNW 9.2 mph 11.5 mph 59 % 0.00 in
04:47 63.5 °F 48.9 °F 29.55 in NW 8.0 mph 11.5 mph 59 % 0.00 in
04:52 63.8 °F 48.7 °F 29.54 in North 5.8 mph 11.5 mph 58 % 0.00 in
04:57 64.1 °F 49.0 °F 29.55 in NNW 7.1 mph 11.5 mph 58 % 0.00 in
05:02 64.4 °F 49.3 °F 29.55 in NNW 5.9 mph 11.5 mph 58 % 0.00 in
05:07 64.7 °F 49.1 °F 29.56 in NNW 5.6 mph 10.4 mph 57 % 0.00 in
05:12 65.1 °F 50.9 °F 29.57 in NW 7.2 mph 13.0 mph 60 % 0.01 in
05:17 64.3 °F 50.6 °F 29.57 in North 6.1 mph 9.2 mph 61 % 0.01 in
05:22 64.5 °F 50.7 °F 29.56 in North 10.1 mph 17.3 mph 61 % 0.01 in
05:27 66.5 °F 50.8 °F 29.55 in North 12.2 mph 19.6 mph 57 % 0.01 in
05:32 67.9 °F 50.1 °F 29.55 in WNW 9.1 mph 11.5 mph 53 % 0.01 in
05:37 68.3 °F 50.5 °F 29.56 in WNW 8.0 mph 11.5 mph 53 % 0.01 in
05:42 68.3 °F 51.0 °F 29.56 in WNW 16.0 mph 29.9 mph 54 % 0.01 in
05:47 68.0 °F 51.2 °F 29.56 in WNW 17.8 mph 24.2 mph 55 % 0.01 in
05:52 67.9 °F 51.6 °F 29.57 in North 13.6 mph 20.0 mph 56 % 0.01 in
05:57 67.8 °F 52.0 °F 29.56 in West 14.4 mph 19.6 mph 57 % 0.01 in
06:02 67.7 °F 52.4 °F 29.56 in NW 14.7 mph 19.6 mph 58 % 0.01 in
06:07 67.5 °F 52.7 °F 29.58 in NW 12.1 mph 16.1 mph 59 % 0.01 in
06:12 67.1 °F 53.6 °F 29.57 in North 16.0 mph 26.5 mph 62 % 0.00 in
06:17 65.5 °F 54.2 °F 29.58 in North 13.8 mph 19.6 mph 67 % 0.00 in
06:22 64.9 °F 54.5 °F 29.58 in North 15.5 mph 19.6 mph 69 % 0.01 in
06:27 64.8 °F 54.8 °F 29.59 in North 8.7 mph 11.5 mph 70 % 0.01 in
06:32 64.7 °F 55.1 °F 29.58 in WNW 11.3 mph 20.7 mph 71 % 0.01 in
06:37 64.6 °F 55.4 °F 29.58 in North 12.2 mph 15.0 mph 72 % 0.01 in
06:42 64.5 °F 55.3 °F 29.59 in WNW 13.6 mph 19.6 mph 72 % 0.01 in
06:47 64.5 °F 55.3 °F 29.59 in NW 12.5 mph 20.7 mph 72 % 0.01 in
06:52 64.6 °F 55.4 °F 29.59 in North 11.2 mph 15.0 mph 72 % 0.01 in
06:57 64.7 °F 55.5 °F 29.59 in North 5.7 mph 11.5 mph 72 % 0.01 in
07:02 64.8 °F 55.6 °F 29.60 in North 8.4 mph 18.4 mph 72 % 0.01 in
07:07 64.8 °F 55.6 °F 29.60 in North 7.1 mph 13.0 mph 72 % 0.01 in
07:12 64.8 °F 55.6 °F 29.60 in WNW 10.2 mph 10.4 mph 72 % 0.01 in
07:17 64.9 °F 55.7 °F 29.61 in WNW 11.8 mph 21.0 mph 72 % 0.01 in
07:22 64.9 °F 54.9 °F 29.64 in West 23.4 mph 28.8 mph 70 % 0.00 in
07:27 61.8 °F 53.1 °F 29.64 in North 18.0 mph 28.8 mph 73 % 0.00 in
07:32 60.3 °F 52.7 °F 29.65 in SW 14.3 mph 28.8 mph 76 % 0.00 in
07:37 59.5 °F 52.6 °F 29.66 in WSW 15.8 mph 22.0 mph 78 % 0.00 in
07:42 59.3 °F 52.8 °F 29.66 in West 12.4 mph 22.0 mph 79 % 0.00 in
07:47 59.1 °F 52.6 °F 29.67 in North 9.8 mph 16.1 mph 79 % 0.00 in
07:52 58.9 °F 52.7 °F 29.68 in North 14.1 mph 20.7 mph 80 % 0.00 in
07:58 58.0 °F 52.5 °F 29.69 in WSW 7.4 mph 16.1 mph 82 % 0.00 in
08:04 57.5 °F 52.0 °F 29.69 in SW 10.9 mph 23.0 mph 82 % 0.00 in
08:18 57.4 °F 51.3 °F 29.69 in SW 25.3 mph 25.3 mph 80 % 0.00 in
08:23 57.6 °F 50.1 °F 29.69 in WSW 18.4 mph 27.6 mph 76 % 0.00 in
08:28 58.3 °F 50.4 °F 29.69 in WSW 16.0 mph 19.6 mph 75 % 0.00 in
08:34 58.9 °F 49.9 °F 29.69 in West 18.7 mph 24.2 mph 72 % 0.00 in
08:38 59.2 °F 49.4 °F 29.69 in West 21.8 mph 32.2 mph 70 % 0.00 in
08:44 59.3 °F 48.3 °F 29.69 in WSW 25.3 mph 25.3 mph 67 % 0.00 in
08:49 59.5 °F 48.5 °F 29.69 in WSW 18.7 mph 29.9 mph 67 % 0.00 in
08:54 59.7 °F 48.3 °F 29.69 in WSW 18.8 mph 24.0 mph 66 % 0.00 in
08:58 59.5 °F 47.7 °F 29.69 in North 14.8 mph 24.2 mph 65 % 0.00 in
09:03 59.8 °F 47.6 °F 29.70 in West 17.6 mph 27.6 mph 64 % 0.00 in
09:09 59.9 °F 47.3 °F 29.70 in SW 12.8 mph 21.9 mph 63 % 0.00 in
09:14 59.9 °F 46.8 °F 29.70 in WSW 18.3 mph 21.9 mph 62 % 0.00 in
09:19 59.9 °F 46.4 °F 29.71 in SW 21.5 mph 29.9 mph 61 % 0.00 in
09:24 60.0 °F 45.6 °F 29.71 in North 21.8 mph 27.6 mph 59 % 0.00 in
09:28 60.1 °F 46.2 °F 29.71 in West 12.9 mph 17.3 mph 60 % 0.00 in
09:33 60.3 °F 45.5 °F 29.72 in North 18.5 mph 26.5 mph 58 % 0.00 in
09:38 60.5 °F 45.6 °F 29.72 in WSW 14.6 mph 24.2 mph 58 % 0.00 in
09:43 60.1 °F 44.3 °F 29.73 in WSW 19.5 mph 31.1 mph 56 % 0.00 in
09:49 60.2 °F 44.4 °F 29.74 in North 18.5 mph 24.2 mph 56 % 0.00 in
09:54 60.4 °F 45.1 °F 29.74 in West 11.8 mph 23.0 mph 57 % 0.00 in
09:59 60.7 °F 44.9 °F 29.75 in WSW 11.1 mph 17.3 mph 56 % 0.00 in
10:04 60.4 °F 43.2 °F 29.76 in WSW 21.0 mph 24.2 mph 53 % 0.00 in
10:09 60.3 °F 43.6 °F 29.76 in WSW 10.5 mph 20.7 mph 54 % 0.00 in
10:14 60.6 °F 43.4 °F 29.76 in WSW 9.9 mph 12.7 mph 53 % 0.00 in
10:19 60.9 °F 43.1 °F 29.77 in WSW 13.2 mph 19.6 mph 52 % 0.00 in
10:24 61.1 °F 42.8 °F 29.77 in West 14.1 mph 19.6 mph 51 % 0.00 in
10:29 61.3 °F 42.5 °F 29.77 in West 11.9 mph 15.0 mph 50 % 0.00 in
10:34 61.6 °F 42.2 °F 29.78 in SW 9.0 mph 18.4 mph 49 % 0.00 in
10:39 61.6 °F 42.8 °F 29.78 in SW 6.8 mph 15.0 mph 50 % 0.00 in
10:44 61.5 °F 42.2 °F 29.78 in WSW 12.1 mph 17.0 mph 49 % 0.00 in
10:49 61.8 °F 40.8 °F 29.78 in WSW 19.1 mph 24.2 mph 46 % 0.00 in
10:54 62.2 °F 40.0 °F 29.79 in WSW 13.7 mph 19.6 mph 44 % 0.00 in
10:59 62.2 °F 40.6 °F 29.79 in North 20.7 mph 24.2 mph 45 % 0.00 in
11:04 62.0 °F 41.0 °F 29.79 in West 14.3 mph 24.0 mph 46 % 0.00 in
11:09 61.9 °F 40.3 °F 29.80 in West 13.1 mph 28.8 mph 45 % 0.00 in
11:14 62.1 °F 40.5 °F 29.80 in West 15.4 mph 20.0 mph 45 % 0.00 in
11:19 61.6 °F 40.6 °F 29.80 in WSW 10.7 mph 17.3 mph 46 % 0.00 in
11:24 62.0 °F 41.0 °F 29.81 in WSW 15.7 mph 20.7 mph 46 % 0.00 in
11:29 61.9 °F 40.9 °F 29.81 in SW 11.2 mph 15.0 mph 46 % 0.00 in
11:34 62.1 °F 39.9 °F 29.81 in West 14.3 mph 25.3 mph 44 % 0.00 in
11:39 62.6 °F 39.8 °F 29.81 in North 16.1 mph 21.9 mph 43 % 0.00 in
11:44 62.7 °F 40.5 °F 29.82 in WSW 7.5 mph 13.0 mph 44 % 0.00 in
11:49 62.8 °F 41.1 °F 29.82 in West 11.5 mph 16.1 mph 45 % 0.00 in
11:54 62.8 °F 40.5 °F 29.82 in West 9.6 mph 16.1 mph 44 % 0.00 in
11:59 62.8 °F 40.5 °F 29.82 in SW 11.2 mph 17.3 mph 44 % 0.00 in
12:04 63.3 °F 41.0 °F 29.82 in WSW 10.5 mph 16.0 mph 44 % 0.00 in
12:09 63.7 °F 40.2 °F 29.83 in SSW 13.0 mph 21.9 mph 42 % 0.00 in
12:14 63.9 °F 40.3 °F 29.83 in WSW 15.3 mph 19.6 mph 42 % 0.00 in
12:19 63.7 °F 40.8 °F 29.83 in West 12.0 mph 17.0 mph 43 % 0.00 in
12:24 63.4 °F 41.7 °F 29.83 in WSW 7.9 mph 11.5 mph 45 % 0.00 in
12:29 65.1 °F 42.6 °F 29.83 in North 12.0 mph 15.0 mph 44 % 0.00 in
12:34 65.6 °F 38.6 °F 29.83 in WNW 13.3 mph 17.3 mph 37 % 0.00 in
12:39 65.1 °F 37.5 °F 29.83 in WSW 9.3 mph 12.7 mph 36 % 0.00 in
12:44 64.1 °F 38.0 °F 29.83 in WSW 8.2 mph 12.7 mph 38 % 0.00 in
12:49 64.3 °F 38.1 °F 29.83 in North 8.1 mph 11.5 mph 38 % 0.00 in
12:54 65.3 °F 37.6 °F 29.83 in WNW 16.1 mph 20.7 mph 36 % 0.00 in
12:59 65.6 °F 36.5 °F 29.83 in SW 10.1 mph 15.0 mph 34 % 0.00 in
13:04 65.6 °F 37.2 °F 29.84 in SSW 10.3 mph 15.0 mph 35 % 0.00 in
13:09 64.6 °F 36.3 °F 29.84 in West 9.7 mph 12.7 mph 35 % 0.00 in
13:14 65.7 °F 36.5 °F 29.83 in North 16.7 mph 21.9 mph 34 % 0.00 in
13:19 66.5 °F 36.5 °F 29.84 in North 10.0 mph 11.5 mph 33 % 0.00 in
13:24 66.7 °F 36.7 °F 29.84 in WSW 8.9 mph 15.0 mph 33 % 0.00 in
13:29 66.5 °F 35.7 °F 29.84 in North 14.3 mph 20.7 mph 32 % 0.00 in
13:34 66.0 °F 36.8 °F 29.84 in SSW 14.5 mph 23.0 mph 34 % 0.00 in
13:39 65.6 °F 37.2 °F 29.84 in WNW 10.2 mph 18.0 mph 35 % 0.00 in
13:44 66.5 °F 37.2 °F 29.84 in WSW 10.9 mph 12.0 mph 34 % 0.00 in
13:49 67.4 °F 37.3 °F 29.84 in North 8.1 mph 11.5 mph 33 % 0.00 in
13:54 67.6 °F 36.7 °F 29.84 in SW 13.0 mph 19.6 mph 32 % 0.00 in
13:59 66.8 °F 36.8 °F 29.84 in WSW 13.4 mph 19.6 mph 33 % 0.00 in
14:04 66.5 °F 37.2 °F 29.84 in SW 13.5 mph 18.4 mph 34 % 0.00 in
14:09 67.1 °F 37.8 °F 29.84 in West 14.6 mph 22.0 mph 34 % 0.00 in
14:14 67.0 °F 36.9 °F 29.83 in WSW 5.5 mph 13.8 mph 33 % 0.00 in
14:19 67.2 °F 37.9 °F 29.83 in West 11.5 mph 15.0 mph 34 % 0.00 in
14:24 67.5 °F 38.1 °F 29.84 in North 9.9 mph 15.0 mph 34 % 0.00 in
14:29 67.9 °F 37.7 °F 29.84 in West 9.3 mph 11.5 mph 33 % 0.00 in
14:34 68.2 °F 38.0 °F 29.84 in SW 13.0 mph 17.3 mph 33 % 0.00 in
14:39 67.4 °F 37.3 °F 29.84 in West 11.6 mph 21.9 mph 33 % 0.00 in
14:44 67.5 °F 37.4 °F 29.84 in WSW 14.1 mph 21.9 mph 33 % 0.00 in
14:49 68.1 °F 37.9 °F 29.83 in WNW 10.5 mph 15.0 mph 33 % 0.00 in
14:54 68.7 °F 38.4 °F 29.83 in West 12.6 mph 21.9 mph 33 % 0.00 in
14:59 68.6 °F 37.5 °F 29.83 in WSW 15.0 mph 18.4 mph 32 % 0.00 in
15:04 69.0 °F 37.9 °F 29.83 in SW 10.6 mph 16.1 mph 32 % 0.00 in
15:09 68.7 °F 36.8 °F 29.83 in WSW 13.3 mph 16.1 mph 31 % 0.00 in
15:14 68.5 °F 36.7 °F 29.83 in WSW 10.7 mph 15.0 mph 31 % 0.00 in
15:19 68.4 °F 36.6 °F 29.83 in SW 9.1 mph 11.5 mph 31 % 0.00 in
15:24 69.1 °F 37.2 °F 29.82 in West 12.1 mph 18.0 mph 31 % 0.00 in
15:29 69.4 °F 36.6 °F 29.83 in WSW 15.3 mph 21.9 mph 30 % 0.00 in
15:34 69.8 °F 36.9 °F 29.83 in WSW 10.2 mph 19.6 mph 30 % 0.00 in
15:39 69.6 °F 36.8 °F 29.83 in West 7.2 mph 11.5 mph 30 % 0.00 in
15:44 69.7 °F 36.9 °F 29.83 in North 10.7 mph 15.0 mph 30 % 0.00 in
15:49 69.9 °F 37.0 °F 29.83 in WSW 14.6 mph 18.4 mph 30 % 0.00 in
15:54 69.5 °F 36.7 °F 29.83 in SW 6.3 mph 8.1 mph 30 % 0.00 in
15:59 70.2 °F 36.4 °F 29.83 in West 8.4 mph 15.0 mph 29 % 0.00 in
16:04 70.8 °F 36.1 °F 29.83 in WSW 11.8 mph 16.1 mph 28 % 0.00 in
16:09 70.4 °F 36.6 °F 29.83 in WSW 6.3 mph 13.8 mph 29 % 0.00 in
16:14 70.7 °F 36.9 °F 29.83 in WSW 13.1 mph 16.1 mph 29 % 0.00 in
16:19 70.3 °F 36.5 °F 29.83 in SW 7.5 mph 12.7 mph 29 % 0.00 in
16:24 70.7 °F 37.7 °F 29.83 in SW 11.6 mph 15.0 mph 30 % 0.00 in
16:29 70.2 °F 38.1 °F 29.83 in West 7.9 mph 9.2 mph 31 % 0.00 in
16:34 70.8 °F 38.7 °F 29.83 in SW 5.9 mph 11.5 mph 31 % 0.00 in
16:39 70.7 °F 37.7 °F 29.83 in North 9.0 mph 15.0 mph 30 % 0.00 in
16:44 70.6 °F 37.6 °F 29.83 in SW 10.7 mph 15.0 mph 30 % 0.00 in
16:49 71.0 °F 38.0 °F 29.83 in North 11.3 mph 16.1 mph 30 % 0.00 in
16:54 70.8 °F 38.7 °F 29.83 in WSW 7.4 mph 12.7 mph 31 % 0.00 in
16:59 70.3 °F 38.2 °F 29.83 in SW 11.6 mph 13.8 mph 31 % 0.00 in
17:04 70.0 °F 38.8 °F 29.83 in SW 10.2 mph 16.1 mph 32 % 0.00 in
17:09 70.5 °F 38.4 °F 29.84 in SW 8.8 mph 13.0 mph 31 % 0.00 in
17:14 70.7 °F 39.4 °F 29.83 in SW 8.4 mph 11.5 mph 32 % 0.00 in
17:19 71.1 °F 38.9 °F 29.84 in WNW 9.6 mph 15.0 mph 31 % 0.00 in
17:24 70.8 °F 38.7 °F 29.84 in WSW 9.6 mph 15.0 mph 31 % 0.00 in
17:29 70.3 °F 39.8 °F 29.84 in SSW 8.4 mph 11.5 mph 33 % 0.00 in
17:34 70.3 °F 39.8 °F 29.84 in SW 8.3 mph 11.5 mph 33 % 0.00 in
17:39 70.2 °F 39.7 °F 29.84 in SW 3.6 mph 4.6 mph 33 % 0.00 in
17:44 70.5 °F 38.4 °F 29.84 in SW 8.7 mph 19.6 mph 31 % 0.00 in
17:49 70.4 °F 38.3 °F 29.84 in WSW 7.4 mph 11.5 mph 31 % 0.00 in
17:54 70.2 °F 38.1 °F 29.85 in North 10.0 mph 12.7 mph 31 % 0.00 in
17:59 70.2 °F 38.9 °F 29.84 in SSW 6.3 mph 9.2 mph 32 % 0.00 in
18:04 70.3 °F 38.2 °F 29.85 in SW 8.9 mph 16.1 mph 31 % 0.00 in
18:09 70.2 °F 38.1 °F 29.85 in SSW 9.3 mph 13.8 mph 31 % 0.00 in
18:14 70.1 °F 38.0 °F 29.85 in SSW 14.1 mph 18.4 mph 31 % 0.00 in
18:19 69.6 °F 37.6 °F 29.85 in WSW 9.7 mph 11.5 mph 31 % 0.00 in
18:24 70.0 °F 38.0 °F 29.85 in SSW 8.0 mph 11.5 mph 31 % 0.00 in
18:29 70.2 °F 37.3 °F 29.85 in SSW 6.8 mph 16.0 mph 30 % 0.00 in
18:34 70.2 °F 36.4 °F 29.85 in SSW 8.0 mph 10.4 mph 29 % 0.00 in
18:39 70.4 °F 36.6 °F 29.85 in WSW 5.9 mph 10.4 mph 29 % 0.00 in
18:44 70.2 °F 36.4 °F 29.86 in SW 7.0 mph 9.2 mph 29 % 0.00 in
18:49 69.9 °F 36.2 °F 29.85 in SW 8.4 mph 13.8 mph 29 % 0.00 in
18:54 69.5 °F 36.7 °F 29.86 in North 9.2 mph 14.0 mph 30 % 0.00 in
18:59 69.4 °F 37.4 °F 29.86 in WSW 6.9 mph 10.4 mph 31 % 0.00 in
19:04 69.2 °F 38.1 °F 29.86 in SW 7.4 mph 9.2 mph 32 % 0.00 in
19:09 68.9 °F 38.6 °F 29.86 in SSW 7.7 mph 11.5 mph 33 % 0.00 in
19:14 69.0 °F 38.7 °F 29.86 in North 8.5 mph 11.5 mph 33 % 0.00 in
19:19 68.6 °F 39.1 °F 29.87 in SW 5.6 mph 9.2 mph 34 % 0.00 in
19:24 68.4 °F 39.7 °F 29.87 in SSW 8.3 mph 15.0 mph 35 % 0.00 in
19:29 67.9 °F 39.9 °F 29.87 in SSW 8.6 mph 11.5 mph 36 % 0.00 in
19:34 67.3 °F 40.1 °F 29.87 in SSW 9.9 mph 13.8 mph 37 % 0.00 in
19:39 67.1 °F 40.6 °F 29.87 in SW 9.4 mph 13.8 mph 38 % 0.00 in
19:44 66.7 °F 40.9 °F 29.87 in SW 7.7 mph 11.5 mph 39 % 0.00 in
19:49 66.4 °F 40.7 °F 29.87 in SW 5.5 mph 10.4 mph 39 % 0.00 in
19:50 66.4 °F 40.7 °F 29.87 in SW 5.2 mph 8.1 mph 39 % 0.00 in
19:55 66.0 °F 41.0 °F 29.88 in SW 8.9 mph 12.7 mph 40 % 0.00 in
20:00 65.5 °F 41.2 °F 29.88 in SW 7.7 mph 13.8 mph 41 % 0.00 in
20:05 65.2 °F 41.5 °F 29.88 in WSW 10.4 mph 12.7 mph 42 % 0.00 in
20:10 64.8 °F 41.8 °F 29.89 in SW 8.0 mph 15.0 mph 43 % 0.00 in
20:15 64.3 °F 41.9 °F 29.89 in SW 7.1 mph 15.0 mph 44 % 0.00 in
20:20 63.9 °F 42.1 °F 29.89 in SW 10.4 mph 15.0 mph 45 % 0.00 in
20:25 63.5 °F 42.3 °F 29.89 in SW 9.1 mph 13.8 mph 46 % 0.00 in
20:30 63.3 °F 42.2 °F 29.89 in North 4.9 mph 8.1 mph 46 % 0.00 in
20:35 63.0 °F 42.4 °F 29.90 in SSW 6.2 mph 13.8 mph 47 % 0.00 in
20:40 62.7 °F 42.2 °F 29.90 in South 10.3 mph 15.0 mph 47 % 0.00 in
20:45 62.6 °F 42.1 °F 29.90 in South 9.7 mph 12.7 mph 47 % 0.00 in
20:50 62.3 °F 41.8 °F 29.91 in SSW 9.6 mph 12.7 mph 47 % 0.00 in
20:55 62.1 °F 41.6 °F 29.90 in SW 7.1 mph 11.5 mph 47 % 0.00 in
21:00 61.9 °F 41.4 °F 29.90 in SSW 5.3 mph 8.1 mph 47 % 0.00 in
21:05 61.6 °F 41.2 °F 29.90 in SW 7.8 mph 11.5 mph 47 % 0.00 in
21:10 61.5 °F 41.1 °F 29.91 in SSW 8.7 mph 11.5 mph 47 % 0.00 in
21:15 61.3 °F 40.9 °F 29.91 in SW 7.4 mph 12.7 mph 47 % 0.00 in
21:20 61.2 °F 41.3 °F 29.91 in SSW 10.0 mph 13.8 mph 48 % 0.00 in
21:25 61.1 °F 41.2 °F 29.91 in North 9.0 mph 11.5 mph 48 % 0.00 in
21:30 60.9 °F 41.1 °F 29.91 in SW 9.3 mph 13.8 mph 48 % 0.00 in
21:35 60.6 °F 41.3 °F 29.92 in SW 9.4 mph 11.5 mph 49 % 0.00 in
21:40 60.3 °F 42.1 °F 29.91 in SW 9.4 mph 13.8 mph 51 % 0.00 in
21:45 59.9 °F 42.2 °F 29.91 in SW 8.7 mph 11.5 mph 52 % 0.00 in
21:50 59.5 °F 41.9 °F 29.92 in SW 9.1 mph 11.5 mph 52 % 0.00 in
21:55 59.2 °F 42.1 °F 29.92 in SSW 9.4 mph 14.0 mph 53 % 0.00 in
22:00 58.9 °F 41.8 °F 29.92 in SSW 6.1 mph 9.2 mph 53 % 0.00 in
22:05 58.5 °F 41.4 °F 29.93 in SSW 4.5 mph 7.0 mph 53 % 0.00 in
22:10 58.3 °F 41.2 °F 29.93 in SSW 4.7 mph 6.9 mph 53 % 0.00 in
22:15 58.1 °F 41.0 °F 29.93 in SSW 5.6 mph 8.1 mph 53 % 0.00 in
22:20 57.8 °F 40.8 °F 29.93 in SSW 8.6 mph 10.4 mph 53 % 0.00 in
22:25 57.7 °F 41.2 °F 29.93 in North 8.0 mph 11.5 mph 54 % 0.00 in
22:30 57.5 °F 41.0 °F 29.93 in SSW 6.3 mph 11.5 mph 54 % 0.00 in
22:35 57.3 °F 40.8 °F 29.93 in SSW 6.0 mph 6.9 mph 54 % 0.00 in
22:40 57.2 °F 41.2 °F 29.94 in SSW 4.3 mph 6.9 mph 55 % 0.00 in
22:45 57.0 °F 41.0 °F 29.94 in SSW 4.1 mph 8.1 mph 55 % 0.00 in
22:50 56.8 °F 40.8 °F 29.94 in SSW 5.3 mph 7.0 mph 55 % 0.00 in
22:55 56.7 °F 41.2 °F 29.94 in SSW 6.8 mph 10.4 mph 56 % 0.00 in
23:00 56.5 °F 41.0 °F 29.94 in SW 6.1 mph 10.4 mph 56 % 0.00 in
23:05 56.4 °F 40.9 °F 29.93 in SW 5.2 mph 11.5 mph 56 % 0.00 in
23:10 56.3 °F 41.3 °F 29.93 in SSW 5.6 mph 8.1 mph 57 % 0.00 in
23:15 56.5 °F 41.4 °F 29.93 in SW 4.4 mph 7.0 mph 57 % 0.00 in
23:20 56.5 °F 41.4 °F 29.93 in SSW 3.4 mph 4.6 mph 57 % 0.00 in
23:25 56.5 °F 41.4 °F 29.93 in SSW 3.3 mph 4.6 mph 57 % 0.00 in
23:30 56.5 °F 41.4 °F 29.93 in SSW 4.3 mph 6.9 mph 57 % 0.00 in
23:35 56.5 °F 41.9 °F 29.93 in SSW 4.7 mph 8.0 mph 58 % 0.00 in
23:40 56.7 °F 42.1 °F 29.93 in North 5.2 mph 6.9 mph 58 % 0.00 in
23:45 56.5 °F 41.9 °F 29.93 in SW 3.0 mph 6.9 mph 58 % 0.00 in
23:46 56.5 °F 41.9 °F 29.93 in SW 4.5 mph 8.1 mph 58 % 0.00 in
23:51 56.4 °F 41.8 °F 29.93 in SW 5.0 mph 5.8 mph 58 % 0.00 in
23:56 56.3 °F 42.1 °F 29.93 in SW 4.1 mph 5.8 mph 59 % 0.00 in
Ararat Weather
Compliments of Weather Underground - 2.5 mb
Click here to send mail.


ABOUT

Live weather data from Ararat, Victoria, Australia, 3377
Data uploaded from Cumulus every 5 minutes to Weather Underground.
This site then downloads the raw data for formatting and display.
Metric and imperial data can be displayed. Graphs and historical data available.
Includes Sun and Moon times and rain image live from BOM.

Check out Ararat Weather on Facebook, Twitter and Google +

Help support ongoing costs by checking out the ads





Follow @AraratWeather